createdAt,value
2019-02-21T00:01:49.993Z,101316.23
2019-02-21T00:04:25.903Z,101312.66
2019-02-21T00:06:55.489Z,101326.85
2019-02-21T00:09:24.826Z,101327.66
2019-02-21T00:11:54.153Z,101323.53
2019-02-21T00:14:23.487Z,101320.89
2019-02-21T00:16:52.852Z,101323.71
2019-02-21T00:19:22.177Z,101324.87
2019-02-21T00:21:51.538Z,101324.47
2019-02-21T00:24:20.872Z,101323.53
2019-02-21T00:26:50.203Z,101331.08
2019-02-21T00:29:19.585Z,101328.20
2019-02-21T00:31:49.204Z,101331.35
2019-02-21T00:34:18.508Z,101332.28
2019-02-21T00:36:48.191Z,101333.91
2019-02-21T00:39:17.560Z,101329.30
2019-02-21T00:41:46.895Z,101336.41
2019-02-21T00:44:16.569Z,101337.62
2019-02-21T00:46:45.916Z,101340.64
2019-02-21T00:49:15.585Z,101343.28
2019-02-21T00:51:44.942Z,101339.31
2019-02-21T00:54:14.272Z,101338.77
2019-02-21T00:56:43.583Z,101341.15
2019-02-21T00:59:12.902Z,101348.14
2019-02-21T01:01:42.224Z,101348.05
2019-02-21T01:04:11.556Z,101345.61
2019-02-21T01:06:41.177Z,101347.70
2019-02-21T01:09:10.497Z,101354.09
2019-02-21T01:11:40.081Z,101343.44
2019-02-21T01:14:09.756Z,101346.34
2019-02-21T01:16:39.079Z,101349.66
2019-02-21T01:19:08.407Z,101344.30
2019-02-21T01:21:38.012Z,101336.11
2019-02-21T01:24:07.352Z,101341.56
2019-02-21T01:26:36.702Z,101336.41
2019-02-21T01:29:06.020Z,101341.13
2019-02-21T01:31:38.018Z,101337.25
2019-02-21T01:34:07.351Z,101344.33
2019-02-21T01:36:36.686Z,101343.98
2019-02-21T01:39:06.905Z,101336.91
2019-02-21T01:41:36.252Z,101345.20
2019-02-21T01:44:05.645Z,101345.33
2019-02-21T01:46:35.252Z,101340.04
2019-02-21T01:49:04.587Z,101337.52
2019-02-21T01:51:35.575Z,101342.16
2019-02-21T01:54:04.883Z,101346.38
2019-02-21T01:56:34.494Z,101342.89
2019-02-21T01:59:03.850Z,101339.48
2019-02-21T02:01:33.652Z,101334.32
2019-02-21T02:04:03.221Z,101330.94
2019-02-21T02:06:32.605Z,101328.70
2019-02-21T02:09:01.914Z,101328.12
2019-02-21T02:11:31.543Z,101326.27
2019-02-21T02:14:00.898Z,101326.44
2019-02-21T02:16:30.242Z,101321.07
2019-02-21T02:18:59.606Z,101326.17
2019-02-21T02:21:28.940Z,101324.48
2019-02-21T02:23:58.666Z,101318.64
2019-02-21T02:26:28.265Z,101314.60
2019-02-21T02:28:57.615Z,101312.25
2019-02-21T02:31:27.236Z,101312.14
2019-02-21T02:33:56.815Z,101313.20
2019-02-21T02:36:26.436Z,101306.03
2019-02-21T02:38:56.041Z,101304.53
2019-02-21T02:41:25.662Z,101306.60
2019-02-21T02:43:55.264Z,101309.64
2019-02-21T02:46:24.638Z,101309.92
2019-02-21T02:48:53.960Z,101304.80
2019-02-21T02:51:23.281Z,101314.03
2019-02-21T02:53:52.983Z,101307.05
2019-02-21T02:56:22.277Z,101296.33
2019-02-21T02:58:52.325Z,101301.14
2019-02-21T03:01:34.043Z,101302.81
2019-02-21T03:03:52.966Z,101308.19
2019-02-21T03:06:22.309Z,101308.50
2019-02-21T03:08:51.877Z,101303.98
2019-02-21T03:11:21.219Z,101304.73
2019-02-21T03:13:50.804Z,101300.77
2019-02-21T03:16:20.372Z,101302.74
2019-02-21T03:18:49.702Z,101310.86
2019-02-21T03:21:19.060Z,101302.18
2019-02-21T03:23:48.647Z,101304.36
2019-02-21T03:26:18.313Z,101296.80
2019-02-21T03:28:47.937Z,101300.22
2019-02-21T03:31:17.280Z,101306.64
2019-02-21T03:33:46.742Z,101303.63
2019-02-21T03:36:16.099Z,101301.53
2019-02-21T03:38:45.434Z,101304.26
2019-02-21T03:41:14.821Z,101302.28
2019-02-21T03:43:44.152Z,101295.69
2019-02-21T03:46:13.525Z,101299.17
2019-02-21T03:48:43.128Z,101295.97
2019-02-21T03:51:12.509Z,101300.69
2019-02-21T03:53:41.826Z,101292.67
2019-02-21T03:56:11.181Z,101299.27
2019-02-21T03:58:40.535Z,101301.70
2019-02-21T04:01:10.146Z,101306.97
2019-02-21T04:03:39.864Z,101311.86
2019-02-21T04:06:09.475Z,101318.64
2019-02-21T04:08:38.819Z,101326.08
2019-02-21T04:11:08.119Z,101334.95
2019-02-21T04:13:37.480Z,101332.02
2019-02-21T04:16:07.183Z,101331.08
2019-02-21T04:18:36.783Z,101330.54
2019-02-21T04:21:06.140Z,101326.78
2019-02-21T04:23:35.765Z,101327.70
2019-02-21T04:26:05.354Z,101327.52
2019-02-21T04:28:34.721Z,101324.61
2019-02-21T04:31:04.057Z,101323.58
2019-02-21T04:33:34.507Z,101327.72
2019-02-21T04:36:03.956Z,101320.36
2019-02-21T04:38:33.289Z,101319.98
2019-02-21T04:41:02.858Z,101317.34
2019-02-21T04:43:32.484Z,101306.23
2019-02-21T04:46:02.240Z,101313.03
2019-02-21T04:48:31.543Z,101316.69
2019-02-21T04:51:00.878Z,101320.75
2019-02-21T04:53:30.223Z,101319.81
2019-02-21T04:55:59.547Z,101321.59
2019-02-21T04:58:28.877Z,101323.36
2019-02-21T05:00:58.202Z,101313.88
2019-02-21T05:03:27.788Z,101323.30
2019-02-21T05:05:57.373Z,101320.28
2019-02-21T05:08:26.960Z,101323.00
2019-02-21T05:10:56.279Z,101320.94
2019-02-21T05:13:25.630Z,101253.91
2019-02-21T05:15:55.196Z,101315.08
2019-02-21T05:18:24.523Z,101322.80
2019-02-21T05:20:53.851Z,101317.61
2019-02-21T05:23:23.468Z,101321.48
2019-02-21T05:25:52.787Z,101316.00
2019-02-21T05:28:32.189Z,101321.47
2019-02-21T05:31:03.447Z,101318.47
2019-02-21T05:33:40.398Z,101320.81
2019-02-21T05:36:15.152Z,101322.98
2019-02-21T05:38:46.403Z,101320.92
2019-02-21T05:41:19.964Z,101325.42
2019-02-21T05:43:50.955Z,101319.80
2019-02-21T05:46:24.594Z,101323.66
2019-02-21T05:48:55.585Z,101326.09
2019-02-21T05:51:26.539Z,101326.00
2019-02-21T05:53:57.815Z,101323.00
2019-02-21T05:56:28.754Z,101320.44
2019-02-21T05:59:02.828Z,101321.30
2019-02-21T06:01:39.910Z,101314.98
2019-02-21T06:04:22.722Z,101326.55
2019-02-21T06:06:56.733Z,101319.01
2019-02-21T06:09:33.657Z,101319.77
2019-02-21T06:12:32.887Z,101322.50
2019-02-21T06:14:53.757Z,101328.98
2019-02-21T06:17:27.389Z,101326.73
2019-02-21T06:20:04.555Z,101330.11
2019-02-21T06:22:41.437Z,101329.15
2019-02-21T06:25:21.467Z,101340.30
2019-02-21T06:28:07.257Z,101344.78
2019-02-21T06:30:38.488Z,101344.52
2019-02-21T06:33:08.079Z,101342.64
2019-02-21T06:35:37.419Z,101340.72
2019-02-21T06:38:06.779Z,101345.23
2019-02-21T06:40:36.615Z,101349.34
2019-02-21T06:43:06.042Z,101348.47
2019-02-21T06:45:35.328Z,101353.19
2019-02-21T06:48:04.954Z,101344.20
2019-02-21T06:50:34.262Z,101344.09
2019-02-21T06:53:03.830Z,101348.81
2019-02-21T06:55:33.150Z,101339.56
2019-02-21T06:58:02.481Z,101338.78
2019-02-21T07:00:31.792Z,101328.03
2019-02-21T07:03:01.127Z,101322.57
2019-02-21T07:05:30.428Z,101326.03
2019-02-21T07:07:59.748Z,101329.52
2019-02-21T07:10:29.355Z,101323.42
2019-02-21T07:12:58.969Z,101310.68
2019-02-21T07:15:28.332Z,101313.02
2019-02-21T07:17:58.450Z,101312.77
2019-02-21T07:20:28.175Z,101309.44
2019-02-21T07:22:57.761Z,101311.82
2019-02-21T07:25:29.047Z,101307.38
2019-02-21T07:27:58.533Z,101317.45
2019-02-21T07:30:28.104Z,101317.79
2019-02-21T07:32:57.464Z,101297.64
2019-02-21T07:35:27.036Z,101309.84
2019-02-21T07:37:56.365Z,101309.67
2019-02-21T07:40:25.968Z,101302.45
2019-02-21T07:42:55.642Z,101301.72
2019-02-21T07:45:24.968Z,101300.55
2019-02-21T07:47:54.458Z,101293.38
2019-02-21T07:50:23.895Z,101303.32
2019-02-21T07:53:02.098Z,101301.34
2019-02-21T07:55:24.871Z,101294.36
2019-02-21T07:57:54.481Z,101300.95
2019-02-21T08:00:23.793Z,101301.03
2019-02-21T08:02:53.449Z,101305.63
2019-02-21T08:05:23.693Z,101316.51
2019-02-21T08:07:53.192Z,101312.03
2019-02-21T08:10:33.118Z,101318.95
2019-02-21T08:12:54.130Z,101329.88
2019-02-21T08:15:23.439Z,101324.20
2019-02-21T08:17:52.784Z,101331.78
2019-02-21T08:20:33.229Z,101318.03
2019-02-21T08:22:53.698Z,101320.55
2019-02-21T08:25:23.067Z,101320.70
2019-02-21T08:27:52.681Z,101322.50
2019-02-21T08:30:22.124Z,101322.63
2019-02-21T08:33:08.157Z,101326.14
2019-02-21T08:35:37.523Z,101333.64
2019-02-21T08:38:07.134Z,101328.96
2019-02-21T08:40:36.914Z,101330.38
2019-02-21T08:43:09.105Z,101333.02
2019-02-21T08:45:38.413Z,101331.70
2019-02-21T08:48:08.040Z,101337.48
2019-02-21T08:50:37.657Z,101337.40
2019-02-21T08:53:07.234Z,101330.81
2019-02-21T08:55:36.810Z,101334.72
2019-02-21T08:58:07.884Z,101336.72
2019-02-21T09:00:37.355Z,101336.58
2019-02-21T09:03:06.926Z,101338.44
2019-02-21T09:05:36.267Z,101333.05
2019-02-21T09:08:05.847Z,101327.78
2019-02-21T09:10:35.161Z,101324.31
2019-02-21T09:13:04.622Z,101329.34
2019-02-21T09:15:33.940Z,101329.72
2019-02-21T09:18:03.540Z,101327.44
2019-02-21T09:20:32.863Z,101323.80
2019-02-21T09:23:02.234Z,101324.27
2019-02-21T09:25:31.843Z,101325.19
2019-02-21T09:28:01.255Z,101327.84
2019-02-21T09:30:30.606Z,101332.88
2019-02-21T09:33:00.075Z,101337.81
2019-02-21T09:35:29.481Z,101338.82
2019-02-21T09:37:59.098Z,101331.86
2019-02-21T09:40:28.805Z,101335.98
2019-02-21T09:42:58.433Z,101332.04
2019-02-21T09:45:28.046Z,101329.66
2019-02-21T09:47:57.452Z,101326.91
2019-02-21T09:50:27.126Z,101316.52
2019-02-21T09:52:56.732Z,101319.67
2019-02-21T09:55:26.317Z,101321.30
2019-02-21T09:57:55.934Z,101322.10
2019-02-21T10:00:25.641Z,101322.59
2019-02-21T10:02:56.698Z,101329.28
2019-02-21T10:05:26.494Z,101320.33
2019-02-21T10:07:55.866Z,101320.97
2019-02-21T10:10:25.440Z,101316.59
2019-02-21T10:12:55.056Z,101321.67
2019-02-21T10:15:24.656Z,101318.88
2019-02-21T10:17:53.983Z,101323.40
2019-02-21T10:20:23.949Z,101328.55
2019-02-21T10:22:53.281Z,101333.11
2019-02-21T10:25:26.100Z,101333.23
2019-02-21T10:27:55.684Z,101329.78
2019-02-21T10:30:25.348Z,101333.10
2019-02-21T10:32:54.680Z,101341.47
2019-02-21T10:35:24.371Z,101338.23
2019-02-21T10:37:53.971Z,101343.84
2019-02-21T10:40:23.292Z,101345.73
2019-02-21T10:42:52.887Z,101341.48
2019-02-21T10:45:23.305Z,101349.89
2019-02-21T10:47:52.617Z,101343.92
2019-02-21T10:50:22.578Z,101341.27
2019-02-21T10:52:51.918Z,101338.59
2019-02-21T10:55:21.527Z,101336.31
2019-02-21T10:57:50.892Z,101333.37
2019-02-21T11:00:27.627Z,101342.27
2019-02-21T11:02:57.347Z,101344.01
2019-02-21T11:05:26.685Z,101345.19
2019-02-21T11:07:56.327Z,101347.95
2019-02-21T11:10:30.670Z,101343.68
2019-02-21T11:13:00.017Z,101333.63
2019-02-21T11:15:29.338Z,101336.84
2019-02-21T11:17:58.933Z,101330.86
2019-02-21T11:20:28.558Z,101327.37
2019-02-21T11:22:57.872Z,101319.47
2019-02-21T11:25:27.459Z,101317.08
2019-02-21T11:27:56.797Z,101302.34
2019-02-21T11:30:26.445Z,101296.81
2019-02-21T11:32:55.794Z,101290.55
2019-02-21T11:35:25.106Z,101285.71
2019-02-21T11:37:54.440Z,101288.92
2019-02-21T11:40:24.088Z,101280.38
2019-02-21T11:42:53.682Z,101272.86
2019-02-21T11:45:23.001Z,101276.12
2019-02-21T11:47:52.560Z,101276.88
2019-02-21T11:50:21.914Z,101265.84
2019-02-21T11:52:51.224Z,101260.89
2019-02-21T11:55:25.659Z,101266.14
2019-02-21T11:57:54.992Z,101267.23
2019-02-21T12:00:31.530Z,101269.83
2019-02-21T12:03:01.125Z,101273.11
2019-02-21T12:05:31.905Z,101268.44
2019-02-21T12:08:01.632Z,101270.53
2019-02-21T12:10:30.972Z,101271.27
2019-02-21T12:13:00.609Z,101264.64
2019-02-21T12:15:30.219Z,101266.83
2019-02-21T12:17:59.814Z,101262.35
2019-02-21T12:20:29.531Z,101258.55
2019-02-21T12:22:59.207Z,101258.64
2019-02-21T12:25:28.541Z,101247.34
2019-02-21T12:27:58.191Z,101254.20
2019-02-21T12:30:27.787Z,101242.21
2019-02-21T12:32:57.501Z,101241.80
2019-02-21T12:35:29.896Z,101240.71
2019-02-21T12:37:58.454Z,101235.97
2019-02-21T12:40:28.054Z,101225.74
2019-02-21T12:42:57.388Z,101211.69
2019-02-21T12:45:30.212Z,101215.42
2019-02-21T12:47:59.606Z,101214.00
2019-02-21T12:50:28.950Z,101207.98
2019-02-21T12:52:58.534Z,101214.33
2019-02-21T12:55:31.594Z,101211.00
2019-02-21T12:57:59.217Z,101213.35
2019-02-21T13:00:28.557Z,101215.41
2019-02-21T13:02:57.926Z,101211.42
2019-02-21T13:05:27.269Z,101207.16
2019-02-21T13:07:56.595Z,101209.80
2019-02-21T13:10:26.229Z,101213.05
2019-02-21T13:12:55.560Z,101209.80
2019-02-21T13:15:25.173Z,101205.24
2019-02-21T13:17:54.787Z,101207.42
2019-02-21T13:20:24.123Z,101202.25
2019-02-21T13:22:53.738Z,101213.77
2019-02-21T13:25:23.053Z,101209.47
2019-02-21T13:27:52.400Z,101204.69
2019-02-21T13:30:22.021Z,101207.27
2019-02-21T13:32:51.631Z,101212.80
2019-02-21T13:35:21.243Z,101207.11
2019-02-21T13:37:50.936Z,101201.59
2019-02-21T13:40:21.329Z,101189.75
2019-02-21T13:42:50.966Z,101197.17
2019-02-21T13:45:20.313Z,101184.67
2019-02-21T13:47:50.033Z,101185.80
2019-02-21T13:50:23.710Z,101188.47
2019-02-21T13:52:52.675Z,101181.98
2019-02-21T13:55:22.321Z,101192.95
2019-02-21T13:57:51.999Z,101191.34
2019-02-21T14:00:24.911Z,101193.28
2019-02-21T14:02:54.258Z,101191.48
2019-02-21T14:05:24.057Z,101189.50
2019-02-21T14:07:53.399Z,101191.45
2019-02-21T14:10:22.730Z,101197.51
2019-02-21T14:12:52.432Z,101190.78
2019-02-21T14:15:30.210Z,101192.30
2019-02-21T14:17:59.829Z,101187.84
2019-02-21T14:20:29.433Z,101184.33
2019-02-21T14:22:59.156Z,101188.67
2019-02-21T14:25:40.001Z,101203.53
2019-02-21T14:28:00.320Z,101197.29
2019-02-21T14:30:30.057Z,101197.86
2019-02-21T14:32:59.672Z,101196.75
2019-02-21T14:35:28.995Z,101199.25
2019-02-21T14:37:58.621Z,101209.47
2019-02-21T14:40:27.966Z,101211.78
2019-02-21T14:42:57.285Z,101205.46
2019-02-21T14:45:27.280Z,101202.91
2019-02-21T14:47:56.974Z,101198.50
2019-02-21T14:50:26.576Z,101200.20
2019-02-21T14:52:55.918Z,101208.69
2019-02-21T14:55:25.579Z,101200.33
2019-02-21T14:57:55.171Z,101196.60
2019-02-21T15:00:30.001Z,101201.28
2019-02-21T15:02:59.619Z,101197.19
2019-02-21T15:05:29.013Z,101201.31
2019-02-21T15:07:58.347Z,101206.78
2019-02-21T15:10:27.722Z,101192.33
2019-02-21T15:12:57.042Z,101200.27
2019-02-21T15:15:27.700Z,101195.70
2019-02-21T15:18:06.847Z,101184.48
2019-02-21T15:20:36.440Z,101177.89
2019-02-21T15:22:59.240Z,101183.78
2019-02-21T15:25:28.769Z,101198.25
2019-02-21T15:27:58.497Z,101190.72
2019-02-21T15:30:28.096Z,101192.91
2019-02-21T15:32:57.725Z,101199.28
2019-02-21T15:35:27.065Z,101202.47
2019-02-21T15:37:56.697Z,101208.68
2019-02-21T15:40:26.008Z,101208.48
2019-02-21T15:42:55.351Z,101209.95
2019-02-21T15:45:27.739Z,101202.50
2019-02-21T15:47:57.105Z,101199.66
2019-02-21T15:50:26.420Z,101201.53
2019-02-21T15:52:57.402Z,101204.98
2019-02-21T15:55:27.035Z,101205.89
2019-02-21T15:58:04.028Z,101200.77
2019-02-21T16:00:27.475Z,101205.53
2019-02-21T16:02:56.794Z,101208.14
2019-02-21T16:05:26.411Z,101210.57
2019-02-21T16:07:55.755Z,101213.16
2019-02-21T16:10:29.103Z,101214.09
2019-02-21T16:12:58.832Z,101217.23
2019-02-21T16:15:30.335Z,101220.42
2019-02-21T16:18:00.039Z,101217.52
2019-02-21T16:20:29.741Z,101221.16
2019-02-21T16:22:59.452Z,101222.77
2019-02-21T16:25:33.666Z,101221.29
2019-02-21T16:28:03.039Z,101225.29
2019-02-21T16:30:32.414Z,101218.98
2019-02-21T16:33:01.837Z,101221.01
2019-02-21T16:35:31.407Z,101219.96
2019-02-21T16:38:00.775Z,101226.78
2019-02-21T16:40:30.450Z,101227.01
2019-02-21T16:43:00.167Z,101225.92
2019-02-21T16:45:42.467Z,101229.37
2019-02-21T16:48:00.584Z,101223.06
2019-02-21T16:50:30.391Z,101229.85
2019-02-21T16:52:59.941Z,101223.06
2019-02-21T16:55:30.180Z,101228.88
2019-02-21T16:57:59.785Z,101226.27
2019-02-21T17:00:38.937Z,101226.22
2019-02-21T17:03:00.408Z,101234.25
2019-02-21T17:05:30.068Z,101225.86
2019-02-21T17:07:59.652Z,101235.26
2019-02-21T17:10:28.997Z,101232.97
2019-02-21T17:12:58.375Z,101241.77
2019-02-21T17:15:27.712Z,101240.44
2019-02-21T17:17:57.082Z,101245.95
2019-02-21T17:20:26.824Z,101243.78
2019-02-21T17:22:56.476Z,101249.47
2019-02-21T17:25:25.807Z,101255.13
2019-02-21T17:27:55.426Z,101247.91
2019-02-21T17:30:24.799Z,101254.23
2019-02-21T17:32:54.497Z,101248.83
2019-02-21T17:35:24.209Z,101252.42
2019-02-21T17:37:53.784Z,101251.23
2019-02-21T17:40:25.044Z,101247.05
2019-02-21T17:42:54.360Z,101241.58
2019-02-21T17:45:24.032Z,101248.98
2019-02-21T17:47:53.368Z,101256.60
2019-02-21T17:50:22.680Z,101250.98
2019-02-21T17:52:52.270Z,101252.77
2019-02-21T17:55:21.616Z,101247.68
2019-02-21T17:57:51.294Z,101257.27
2019-02-21T18:00:27.327Z,101254.94
2019-02-21T18:02:56.683Z,101257.94
2019-02-21T18:05:26.097Z,101264.40
2019-02-21T18:07:55.694Z,101260.02
2019-02-21T18:10:25.037Z,101259.85
2019-02-21T18:12:54.365Z,101251.47
2019-02-21T18:15:23.783Z,101257.76
2019-02-21T18:17:53.384Z,101255.34
2019-02-21T18:20:22.703Z,101252.11
2019-02-21T18:22:52.314Z,101255.01
2019-02-21T18:25:38.477Z,101255.83
2019-02-21T18:28:08.071Z,101256.49
2019-02-21T18:30:37.446Z,101249.42
2019-02-21T18:33:06.828Z,101253.69
2019-02-21T18:35:36.189Z,101249.99
2019-02-21T18:38:05.520Z,101256.34
2019-02-21T18:40:34.858Z,101257.95
2019-02-21T18:43:04.501Z,101263.09
2019-02-21T18:45:34.111Z,101264.52
2019-02-21T18:48:03.511Z,101269.27
2019-02-21T18:50:38.190Z,101268.02
2019-02-21T18:53:04.584Z,101268.31
2019-02-21T18:55:34.167Z,101270.78
2019-02-21T18:58:03.536Z,101271.32
2019-02-21T19:00:33.185Z,101263.02
2019-02-21T19:03:02.791Z,101259.66
2019-02-21T19:05:35.999Z,101253.26
2019-02-21T19:08:05.360Z,101259.01
2019-02-21T19:10:34.892Z,101253.57
2019-02-21T19:13:04.470Z,101259.25
2019-02-21T19:15:34.219Z,101252.44
2019-02-21T19:20:33.175Z,101254.22
2019-02-21T19:23:02.835Z,101257.95
2019-02-21T19:25:32.145Z,101250.45
2019-02-21T19:28:01.766Z,101247.62
2019-02-21T19:30:51.055Z,101253.19
2019-02-21T19:33:20.693Z,101253.77
2019-02-21T19:35:50.173Z,101248.95
2019-02-21T19:38:19.862Z,101244.16
2019-02-21T19:40:49.234Z,101233.06
2019-02-21T19:43:18.594Z,101230.87
2019-02-21T19:45:48.172Z,101231.17
2019-02-21T19:48:17.493Z,101234.49
2019-02-21T19:50:46.930Z,101235.82
2019-02-21T19:53:16.578Z,101228.40
2019-02-21T19:55:45.900Z,101231.54
2019-02-21T19:58:15.498Z,101232.89
2019-02-21T20:00:44.827Z,101232.41
2019-02-21T20:03:14.539Z,101243.39
2019-02-21T20:05:44.185Z,101237.05
2019-02-21T20:08:20.926Z,101236.59
2019-02-21T20:10:44.646Z,101239.88
2019-02-21T20:13:15.258Z,101240.02
2019-02-21T20:15:45.144Z,101245.32
2019-02-21T20:18:14.785Z,101240.56
2019-02-21T20:20:44.123Z,101237.83
2019-02-21T20:23:13.728Z,101238.92
2019-02-21T20:25:43.071Z,101232.17
2019-02-21T20:28:12.664Z,101228.78
2019-02-21T20:30:42.049Z,101233.50
2019-02-21T20:33:11.664Z,101237.42
2019-02-21T20:35:41.279Z,101235.17
2019-02-21T20:38:10.632Z,101235.17
2019-02-21T20:40:39.988Z,101233.72
2019-02-21T20:43:09.684Z,101232.48
2019-02-21T20:45:39.290Z,101236.26
2019-02-21T20:48:08.866Z,101238.44
2019-02-21T20:50:38.571Z,101234.08
2019-02-21T20:53:07.878Z,101237.01
2019-02-21T20:55:43.857Z,101233.23
2019-02-21T20:58:11.497Z,101231.64
2019-02-21T21:00:40.034Z,101230.94
2019-02-21T21:03:09.406Z,101229.31
2019-02-21T21:05:39.014Z,101233.20
2019-02-21T21:08:08.733Z,101244.44
2019-02-21T21:10:38.304Z,101235.50
2019-02-21T21:13:07.930Z,101242.47
2019-02-21T21:15:37.838Z,101233.47
2019-02-21T21:18:07.434Z,101242.31
2019-02-21T21:20:37.140Z,101238.80
2019-02-21T21:23:06.750Z,101241.95
2019-02-21T21:25:36.478Z,101238.98
2019-02-21T21:28:06.177Z,101245.02
2019-02-21T21:30:35.897Z,101242.37
2019-02-21T21:33:05.223Z,101242.05
2019-02-21T21:35:34.887Z,101237.47
2019-02-21T21:38:04.491Z,101247.31
2019-02-21T21:40:33.811Z,101239.02
2019-02-21T21:43:03.158Z,101244.50
2019-02-21T21:45:32.461Z,101240.56
2019-02-21T21:48:02.103Z,101252.27
2019-02-21T21:50:31.440Z,101238.88
2019-02-21T21:53:00.752Z,101245.41
2019-02-21T21:55:30.410Z,101245.56
2019-02-21T21:57:59.769Z,101243.48
2019-02-21T22:00:29.072Z,101237.92
2019-02-21T22:02:58.713Z,101238.55
2019-02-21T22:05:28.046Z,101238.70
2019-02-21T22:07:57.731Z,101242.43
2019-02-21T22:10:27.060Z,101243.80
2019-02-21T22:12:56.737Z,101242.95
2019-02-21T22:15:26.093Z,101232.92
2019-02-21T22:17:55.748Z,101228.70
2019-02-21T22:20:25.451Z,101239.23
2019-02-21T22:22:54.785Z,101240.30
2019-02-21T22:25:24.169Z,101240.78
2019-02-21T22:27:53.499Z,101252.29
2019-02-21T22:30:22.909Z,101244.69
2019-02-21T22:32:52.306Z,101243.22
2019-02-21T22:35:21.970Z,101244.09
2019-02-21T22:37:51.562Z,101244.09
2019-02-21T22:40:22.111Z,101239.01
2019-02-21T22:42:51.819Z,101244.43
2019-02-21T22:45:21.197Z,101242.52
2019-02-21T22:47:50.521Z,101253.98
2019-02-21T22:50:20.838Z,101252.29
2019-02-21T22:52:50.155Z,101249.16
2019-02-21T22:55:19.852Z,101249.63
2019-02-21T22:57:49.437Z,101250.36
2019-02-21T23:00:42.509Z,101250.61
2019-02-21T23:03:12.465Z,101255.58
2019-02-21T23:06:29.423Z,101260.13
2019-02-21T23:08:58.746Z,101261.95
2019-02-21T23:11:28.073Z,101266.18
2019-02-21T23:13:57.473Z,101261.95
2019-02-21T23:16:27.470Z,101261.44
2019-02-21T23:18:56.851Z,101259.15
2019-02-21T23:21:26.660Z,101260.84
2019-02-21T23:23:56.253Z,101257.00
2019-02-21T23:26:25.592Z,101262.91
2019-02-21T23:28:54.964Z,101266.18
2019-02-21T23:31:24.276Z,101265.45
2019-02-21T23:33:55.520Z,101265.45
2019-02-21T23:36:25.233Z,101264.48
2019-02-21T23:38:54.553Z,101260.62
2019-02-21T23:41:25.487Z,101258.08
2019-02-21T23:43:54.837Z,101259.03
2019-02-21T23:46:24.239Z,101259.77
2019-02-21T23:48:53.556Z,101264.48
2019-02-21T23:51:23.167Z,101260.62
2019-02-21T23:54:02.484Z,101261.23
2019-02-21T23:56:23.660Z,101250.25
2019-02-21T23:58:53.010Z,101250.63
